sensor_id;sensor_type;location;lat;lon;timestamp;temperature;humidity
84114;DHT22;74483;48.846;2.358;2024-03-23T00:55:14;22.90;29.30
84114;DHT22;74483;48.846;2.358;2024-03-23T00:57:39;22.90;29.20
84114;DHT22;74483;48.846;2.358;2024-03-23T01:00:06;22.90;29.20
84114;DHT22;74483;48.846;2.358;2024-03-23T01:02:32;22.90;29.30
84114;DHT22;74483;48.846;2.358;2024-03-23T01:04:58;22.90;29.20
84114;DHT22;74483;48.846;2.358;2024-03-23T01:07:24;22.80;29.20
84114;DHT22;74483;48.846;2.358;2024-03-23T01:09:49;22.80;29.20
84114;DHT22;74483;48.846;2.358;2024-03-23T01:12:15;22.80;29.20
84114;DHT22;74483;48.846;2.358;2024-03-23T01:14:40;22.80;29.10
84114;DHT22;74483;48.846;2.358;2024-03-23T01:17:06;22.80;29.10
84114;DHT22;74483;48.846;2.358;2024-03-23T01:19:32;22.80;29.10
84114;DHT22;74483;48.846;2.358;2024-03-23T01:21:57;22.80;29.10
84114;DHT22;74483;48.846;2.358;2024-03-23T01:24:23;22.80;29.10
84114;DHT22;74483;48.846;2.358;2024-03-23T01:26:48;22.80;29.10
84114;DHT22;74483;48.846;2.358;2024-03-23T01:29:14;22.80;29.10
84114;DHT22;74483;48.846;2.358;2024-03-23T01:31:39;22.80;29.10
84114;DHT22;74483;48.846;2.358;2024-03-23T01:34:05;22.80;29.10
84114;DHT22;74483;48.846;2.358;2024-03-23T01:36:31;22.80;29.10
84114;DHT22;74483;48.846;2.358;2024-03-23T01:38:56;22.80;29.10
84114;DHT22;74483;48.846;2.358;2024-03-23T01:41:24;22.80;29.10
84114;DHT22;74483;48.846;2.358;2024-03-23T01:43:49;22.80;29.10
84114;DHT22;74483;48.846;2.358;2024-03-23T01:46:16;22.80;29.00
84114;DHT22;74483;48.846;2.358;2024-03-23T01:48:42;22.70;29.00
84114;DHT22;74483;48.846;2.358;2024-03-23T01:51:08;22.70;29.00
84114;DHT22;74483;48.846;2.358;2024-03-23T01:53:33;22.70;29.00
84114;DHT22;74483;48.846;2.358;2024-03-23T01:55:59;22.70;29.00
84114;DHT22;74483;48.846;2.358;2024-03-23T01:58:25;22.70;29.00
84114;DHT22;74483;48.846;2.358;2024-03-23T02:00:50;22.70;29.00
84114;DHT22;74483;48.846;2.358;2024-03-23T02:05:49;22.70;28.90
84114;DHT22;74483;48.846;2.358;2024-03-23T02:08:20;22.70;28.90
84114;DHT22;74483;48.846;2.358;2024-03-23T02:10:45;22.70;28.90
84114;DHT22;74483;48.846;2.358;2024-03-23T02:13:11;22.70;29.00
84114;DHT22;74483;48.846;2.358;2024-03-23T02:15:39;22.70;28.90
84114;DHT22;74483;48.846;2.358;2024-03-23T02:18:04;22.70;28.90
84114;DHT22;74483;48.846;2.358;2024-03-23T02:20:30;22.70;28.90
84114;DHT22;74483;48.846;2.358;2024-03-23T02:22:56;22.70;28.90
84114;DHT22;74483;48.846;2.358;2024-03-23T02:25:21;22.70;28.90
84114;DHT22;74483;48.846;2.358;2024-03-23T02:27:47;22.60;28.80
84114;DHT22;74483;48.846;2.358;2024-03-23T02:30:12;22.60;28.80
84114;DHT22;74483;48.846;2.358;2024-03-23T02:32:38;22.70;28.80
84114;DHT22;74483;48.846;2.358;2024-03-23T02:35:04;22.60;28.70
84114;DHT22;74483;48.846;2.358;2024-03-23T02:37:30;22.60;28.70
84114;DHT22;74483;48.846;2.358;2024-03-23T02:39:55;22.70;28.80
84114;DHT22;74483;48.846;2.358;2024-03-23T02:42:21;22.60;28.70
84114;DHT22;74483;48.846;2.358;2024-03-23T02:44:47;22.60;28.60
84114;DHT22;74483;48.846;2.358;2024-03-23T02:47:12;22.60;28.60
84114;DHT22;74483;48.846;2.358;2024-03-23T02:49:38;22.60;28.60
84114;DHT22;74483;48.846;2.358;2024-03-23T02:52:03;22.60;28.60
84114;DHT22;74483;48.846;2.358;2024-03-23T02:54:29;22.60;28.60
84114;DHT22;74483;48.846;2.358;2024-03-23T02:56:55;22.60;28.60
84114;DHT22;74483;48.846;2.358;2024-03-23T02:59:20;22.60;28.60
84114;DHT22;74483;48.846;2.358;2024-03-23T03:01:46;22.60;28.50
84114;DHT22;74483;48.846;2.358;2024-03-23T03:04:12;22.60;28.50
84114;DHT22;74483;48.846;2.358;2024-03-23T03:06:38;22.60;28.50
84114;DHT22;74483;48.846;2.358;2024-03-23T03:09:03;22.60;28.50
84114;DHT22;74483;48.846;2.358;2024-03-23T03:11:29;22.60;28.50
84114;DHT22;74483;48.846;2.358;2024-03-23T03:13:55;22.60;28.50
84114;DHT22;74483;48.846;2.358;2024-03-23T03:16:21;22.60;28.40
84114;DHT22;74483;48.846;2.358;2024-03-23T03:18:46;22.60;28.40
84114;DHT22;74483;48.846;2.358;2024-03-23T03:21:12;22.60;28.40
84114;DHT22;74483;48.846;2.358;2024-03-23T03:23:38;22.60;28.40
84114;DHT22;74483;48.846;2.358;2024-03-23T03:26:06;22.60;28.40
84114;DHT22;74483;48.846;2.358;2024-03-23T03:28:32;22.60;28.30
84114;DHT22;74483;48.846;2.358;2024-03-23T03:30:59;22.60;28.30
84114;DHT22;74483;48.846;2.358;2024-03-23T03:33:25;22.60;28.30
84114;DHT22;74483;48.846;2.358;2024-03-23T03:35:51;22.60;28.30
84114;DHT22;74483;48.846;2.358;2024-03-23T03:38:18;22.50;28.30
84114;DHT22;74483;48.846;2.358;2024-03-23T03:40:43;22.60;28.20
84114;DHT22;74483;48.846;2.358;2024-03-23T03:43:09;22.50;28.20
84114;DHT22;74483;48.846;2.358;2024-03-23T03:45:35;22.60;28.20
84114;DHT22;74483;48.846;2.358;2024-03-23T03:48:00;22.60;28.20
84114;DHT22;74483;48.846;2.358;2024-03-23T03:50:26;22.50;28.10
84114;DHT22;74483;48.846;2.358;2024-03-23T03:52:51;22.50;28.20
84114;DHT22;74483;48.846;2.358;2024-03-23T03:55:17;22.50;28.20
84114;DHT22;74483;48.846;2.358;2024-03-23T03:57:43;22.50;28.10
84114;DHT22;74483;48.846;2.358;2024-03-23T04:00:09;22.50;28.20
84114;DHT22;74483;48.846;2.358;2024-03-23T04:02:38;22.50;28.10
84114;DHT22;74483;48.846;2.358;2024-03-23T04:05:04;22.50;28.10
84114;DHT22;74483;48.846;2.358;2024-03-23T04:07:30;22.50;28.00
84114;DHT22;74483;48.846;2.358;2024-03-23T04:09:56;22.50;28.00
84114;DHT22;74483;48.846;2.358;2024-03-23T04:12:21;22.50;28.00
84114;DHT22;74483;48.846;2.358;2024-03-23T04:14:47;22.50;28.00
84114;DHT22;74483;48.846;2.358;2024-03-23T04:17:12;22.50;28.00
84114;DHT22;74483;48.846;2.358;2024-03-23T04:19:38;22.50;27.90
84114;DHT22;74483;48.846;2.358;2024-03-23T04:22:04;22.50;27.90
84114;DHT22;74483;48.846;2.358;2024-03-23T04:24:30;22.50;27.80
84114;DHT22;74483;48.846;2.358;2024-03-23T04:26:56;22.40;27.80
84114;DHT22;74483;48.846;2.358;2024-03-23T04:29:21;22.40;27.70
84114;DHT22;74483;48.846;2.358;2024-03-23T04:31:47;22.40;27.70
84114;DHT22;74483;48.846;2.358;2024-03-23T04:34:13;22.40;27.70
84114;DHT22;74483;48.846;2.358;2024-03-23T04:36:39;22.50;27.80
84114;DHT22;74483;48.846;2.358;2024-03-23T04:39:05;22.40;27.70
84114;DHT22;74483;48.846;2.358;2024-03-23T04:41:34;22.40;27.70
84114;DHT22;74483;48.846;2.358;2024-03-23T04:44:00;22.40;27.60
84114;DHT22;74483;48.846;2.358;2024-03-23T04:46:25;22.40;27.60
84114;DHT22;74483;48.846;2.358;2024-03-23T04:48:51;22.40;27.60
84114;DHT22;74483;48.846;2.358;2024-03-23T04:51:23;22.40;27.60
84114;DHT22;74483;48.846;2.358;2024-03-23T04:53:49;22.40;27.60
84114;DHT22;74483;48.846;2.358;2024-03-23T04:56:17;22.40;27.60
84114;DHT22;74483;48.846;2.358;2024-03-23T04:58:44;22.40;27.60
84114;DHT22;74483;48.846;2.358;2024-03-23T05:01:10;22.40;27.50
84114;DHT22;74483;48.846;2.358;2024-03-23T05:03:36;22.40;27.50
84114;DHT22;74483;48.846;2.358;2024-03-23T05:06:02;22.40;27.50
84114;DHT22;74483;48.846;2.358;2024-03-23T05:08:27;22.40;27.50
84114;DHT22;74483;48.846;2.358;2024-03-23T05:10:53;22.40;27.50
84114;DHT22;74483;48.846;2.358;2024-03-23T05:13:18;22.40;27.40
84114;DHT22;74483;48.846;2.358;2024-03-23T05:15:44;22.40;27.40
84114;DHT22;74483;48.846;2.358;2024-03-23T05:18:10;22.40;27.40
84114;DHT22;74483;48.846;2.358;2024-03-23T05:20:35;22.40;27.30
84114;DHT22;74483;48.846;2.358;2024-03-23T05:23:01;22.40;27.30
84114;DHT22;74483;48.846;2.358;2024-03-23T05:25:27;22.40;27.30
84114;DHT22;74483;48.846;2.358;2024-03-23T05:27:52;22.40;27.30
84114;DHT22;74483;48.846;2.358;2024-03-23T05:30:18;22.30;27.30
84114;DHT22;74483;48.846;2.358;2024-03-23T05:32:44;22.40;27.30
84114;DHT22;74483;48.846;2.358;2024-03-23T05:35:10;22.40;27.20
84114;DHT22;74483;48.846;2.358;2024-03-23T05:37:35;22.40;27.20
84114;DHT22;74483;48.846;2.358;2024-03-23T05:40:02;22.40;27.20
84114;DHT22;74483;48.846;2.358;2024-03-23T05:42:29;22.40;27.20
84114;DHT22;74483;48.846;2.358;2024-03-23T05:44:54;22.40;27.10
84114;DHT22;74483;48.846;2.358;2024-03-23T05:47:20;22.30;27.10
84114;DHT22;74483;48.846;2.358;2024-03-23T05:49:46;22.30;27.10
84114;DHT22;74483;48.846;2.358;2024-03-23T05:52:12;22.30;27.10
84114;DHT22;74483;48.846;2.358;2024-03-23T05:54:38;22.40;27.00
84114;DHT22;74483;48.846;2.358;2024-03-23T05:57:04;22.30;27.00
84114;DHT22;74483;48.846;2.358;2024-03-23T05:59:30;22.40;27.00
84114;DHT22;74483;48.846;2.358;2024-03-23T06:01:56;22.40;26.90
84114;DHT22;74483;48.846;2.358;2024-03-23T06:04:22;22.40;26.90
84114;DHT22;74483;48.846;2.358;2024-03-23T06:06:48;22.30;26.90
84114;DHT22;74483;48.846;2.358;2024-03-23T06:09:13;22.40;26.80
84114;DHT22;74483;48.846;2.358;2024-03-23T06:11:39;22.40;26.80
84114;DHT22;74483;48.846;2.358;2024-03-23T06:14:05;22.40;26.80
84114;DHT22;74483;48.846;2.358;2024-03-23T06:16:31;22.40;26.80
84114;DHT22;74483;48.846;2.358;2024-03-23T06:18:57;22.40;26.70
84114;DHT22;74483;48.846;2.358;2024-03-23T06:21:24;22.40;26.70
84114;DHT22;74483;48.846;2.358;2024-03-23T06:23:52;22.40;26.70
84114;DHT22;74483;48.846;2.358;2024-03-23T06:26:18;22.40;26.60
84114;DHT22;74483;48.846;2.358;2024-03-23T06:28:44;22.40;26.60
84114;DHT22;74483;48.846;2.358;2024-03-23T06:31:10;22.40;26.60
84114;DHT22;74483;48.846;2.358;2024-03-23T06:33:36;22.40;26.40
84114;DHT22;74483;48.846;2.358;2024-03-23T06:36:02;22.40;26.40
84114;DHT22;74483;48.846;2.358;2024-03-23T06:38:28;22.40;26.40
84114;DHT22;74483;48.846;2.358;2024-03-23T06:40:54;22.40;26.40
84114;DHT22;74483;48.846;2.358;2024-03-23T06:43:19;22.40;26.40
84114;DHT22;74483;48.846;2.358;2024-03-23T06:45:55;22.40;26.30
84114;DHT22;74483;48.846;2.358;2024-03-23T06:48:21;22.50;26.30
84114;DHT22;74483;48.846;2.358;2024-03-23T06:50:47;22.40;26.20
84114;DHT22;74483;48.846;2.358;2024-03-23T06:53:13;22.50;26.30
84114;DHT22;74483;48.846;2.358;2024-03-23T06:55:39;22.50;26.20
84114;DHT22;74483;48.846;2.358;2024-03-23T06:58:05;22.50;26.00
84114;DHT22;74483;48.846;2.358;2024-03-23T07:00:31;22.60;25.80
84114;DHT22;74483;48.846;2.358;2024-03-23T07:02:57;22.70;25.70
84114;DHT22;74483;48.846;2.358;2024-03-23T07:05:23;22.70;25.60
84114;DHT22;74483;48.846;2.358;2024-03-23T07:07:49;22.70;25.60
84114;DHT22;74483;48.846;2.358;2024-03-23T07:10:14;22.70;25.70
84114;DHT22;74483;48.846;2.358;2024-03-23T07:12:40;22.70;25.70
84114;DHT22;74483;48.846;2.358;2024-03-23T07:15:06;22.70;25.70
84114;DHT22;74483;48.846;2.358;2024-03-23T07:17:32;22.60;25.70
84114;DHT22;74483;48.846;2.358;2024-03-23T07:19:58;22.60;25.80
84114;DHT22;74483;48.846;2.358;2024-03-23T07:22:24;22.60;25.80
84114;DHT22;74483;48.846;2.358;2024-03-23T07:24:49;22.60;25.80
84114;DHT22;74483;48.846;2.358;2024-03-23T07:27:15;22.60;25.90
84114;DHT22;74483;48.846;2.358;2024-03-23T07:29:40;22.60;25.90
84114;DHT22;74483;48.846;2.358;2024-03-23T07:32:06;22.60;26.00
84114;DHT22;74483;48.846;2.358;2024-03-23T07:34:32;22.60;25.90
84114;DHT22;74483;48.846;2.358;2024-03-23T07:36:57;22.60;25.90
84114;DHT22;74483;48.846;2.358;2024-03-23T07:39:23;22.60;25.80
84114;DHT22;74483;48.846;2.358;2024-03-23T07:41:48;22.70;25.90
84114;DHT22;74483;48.846;2.358;2024-03-23T07:44:14;22.70;25.80
84114;DHT22;74483;48.846;2.358;2024-03-23T07:46:39;22.80;25.60
84114;DHT22;74483;48.846;2.358;2024-03-23T07:49:05;23.00;25.20
84114;DHT22;74483;48.846;2.358;2024-03-23T07:51:30;23.30;24.80
84114;DHT22;74483;48.846;2.358;2024-03-23T07:53:56;23.50;24.50
84114;DHT22;74483;48.846;2.358;2024-03-23T07:56:22;23.60;24.10
84114;DHT22;74483;48.846;2.358;2024-03-23T07:58:48;23.70;24.00
84114;DHT22;74483;48.846;2.358;2024-03-23T08:01:15;23.70;24.00
84114;DHT22;74483;48.846;2.358;2024-03-23T08:03:45;23.70;24.00
84114;DHT22;74483;48.846;2.358;2024-03-23T08:06:12;23.60;24.20
84114;DHT22;74483;48.846;2.358;2024-03-23T08:08:40;23.50;24.40
84114;DHT22;74483;48.846;2.358;2024-03-23T08:11:06;23.60;24.40
84114;DHT22;74483;48.846;2.358;2024-03-23T08:13:32;23.60;24.20
84114;DHT22;74483;48.846;2.358;2024-03-23T08:15:58;23.60;24.30
84114;DHT22;74483;48.846;2.358;2024-03-23T08:18:24;23.60;24.40
84114;DHT22;74483;48.846;2.358;2024-03-23T08:21:00;23.70;24.20
84114;DHT22;74483;48.846;2.358;2024-03-23T08:23:27;24.00;23.60
84114;DHT22;74483;48.846;2.358;2024-03-23T08:26:00;24.20;23.30
84114;DHT22;74483;48.846;2.358;2024-03-23T08:28:26;24.10;23.30
84114;DHT22;74483;48.846;2.358;2024-03-23T08:30:53;24.10;23.60
84114;DHT22;74483;48.846;2.358;2024-03-23T08:33:19;24.00;23.70
84114;DHT22;74483;48.846;2.358;2024-03-23T08:36:02;23.90;23.90
84114;DHT22;74483;48.846;2.358;2024-03-23T08:38:28;23.90;24.00
84114;DHT22;74483;48.846;2.358;2024-03-23T08:43:23;23.80;24.00
84114;DHT22;74483;48.846;2.358;2024-03-23T08:45:49;23.80;24.10
84114;DHT22;74483;48.846;2.358;2024-03-23T08:48:15;23.70;24.10
84114;DHT22;74483;48.846;2.358;2024-03-23T08:50:41;23.80;24.10
84114;DHT22;74483;48.846;2.358;2024-03-23T08:53:06;23.70;24.10
84114;DHT22;74483;48.846;2.358;2024-03-23T08:55:32;23.80;24.10
84114;DHT22;74483;48.846;2.358;2024-03-23T08:57:57;23.70;24.10
84114;DHT22;74483;48.846;2.358;2024-03-23T09:00:23;23.80;24.00
84114;DHT22;74483;48.846;2.358;2024-03-23T09:02:50;23.80;24.00
84114;DHT22;74483;48.846;2.358;2024-03-23T09:05:15;23.80;23.90
84114;DHT22;74483;48.846;2.358;2024-03-23T09:07:41;23.80;23.90
84114;DHT22;74483;48.846;2.358;2024-03-23T09:10:07;23.90;23.90
84114;DHT22;74483;48.846;2.358;2024-03-23T09:12:33;24.00;23.60
84114;DHT22;74483;48.846;2.358;2024-03-23T09:14:58;24.00;23.60
84114;DHT22;74483;48.846;2.358;2024-03-23T09:17:24;23.90;23.50
84114;DHT22;74483;48.846;2.358;2024-03-23T09:19:49;24.00;23.50
84114;DHT22;74483;48.846;2.358;2024-03-23T09:22:15;24.00;23.50
84114;DHT22;74483;48.846;2.358;2024-03-23T09:24:41;23.90;23.50
84114;DHT22;74483;48.846;2.358;2024-03-23T09:27:06;24.00;23.50
84114;DHT22;74483;48.846;2.358;2024-03-23T09:29:32;23.90;23.60
84114;DHT22;74483;48.846;2.358;2024-03-23T09:31:57;23.90;23.60
84114;DHT22;74483;48.846;2.358;2024-03-23T09:34:23;23.90;23.60
84114;DHT22;74483;48.846;2.358;2024-03-23T09:36:52;23.90;23.50
84114;DHT22;74483;48.846;2.358;2024-03-23T09:39:18;24.00;23.40
84114;DHT22;74483;48.846;2.358;2024-03-23T09:41:45;24.00;23.40
84114;DHT22;74483;48.846;2.358;2024-03-23T09:44:10;23.90;23.40
84114;DHT22;74483;48.846;2.358;2024-03-23T09:46:36;23.90;23.50
84114;DHT22;74483;48.846;2.358;2024-03-23T09:49:03;23.80;23.50
84114;DHT22;74483;48.846;2.358;2024-03-23T09:51:31;23.80;23.60
84114;DHT22;74483;48.846;2.358;2024-03-23T09:53:57;23.80;23.60
84114;DHT22;74483;48.846;2.358;2024-03-23T09:56:22;23.80;23.70
84114;DHT22;74483;48.846;2.358;2024-03-23T09:58:49;23.80;23.60
84114;DHT22;74483;48.846;2.358;2024-03-23T10:01:15;23.90;23.60
84114;DHT22;74483;48.846;2.358;2024-03-23T10:03:46;23.90;23.60
84114;DHT22;74483;48.846;2.358;2024-03-23T10:06:12;23.90;23.50
84114;DHT22;74483;48.846;2.358;2024-03-23T10:08:38;23.90;23.30
84114;DHT22;74483;48.846;2.358;2024-03-23T10:11:15;24.00;23.30
84114;DHT22;74483;48.846;2.358;2024-03-23T10:13:44;24.00;23.20
84114;DHT22;74483;48.846;2.358;2024-03-23T10:16:11;24.10;23.20
84114;DHT22;74483;48.846;2.358;2024-03-23T10:18:38;24.10;23.10
84114;DHT22;74483;48.846;2.358;2024-03-23T10:21:08;24.10;23.00
84114;DHT22;74483;48.846;2.358;2024-03-23T10:23:37;24.20;22.90
84114;DHT22;74483;48.846;2.358;2024-03-23T10:26:13;24.20;22.80
84114;DHT22;74483;48.846;2.358;2024-03-23T10:28:55;24.30;22.80
84114;DHT22;74483;48.846;2.358;2024-03-23T10:31:31;24.30;22.70
84114;DHT22;74483;48.846;2.358;2024-03-23T10:33:57;24.30;22.70
84114;DHT22;74483;48.846;2.358;2024-03-23T10:36:24;24.30;22.60
84114;DHT22;74483;48.846;2.358;2024-03-23T10:38:50;24.30;23.30
84114;DHT22;74483;48.846;2.358;2024-03-23T10:41:17;24.30;22.60
84114;DHT22;74483;48.846;2.358;2024-03-23T10:43:47;24.30;22.50
84114;DHT22;74483;48.846;2.358;2024-03-23T10:46:13;24.40;22.40
84114;DHT22;74483;48.846;2.358;2024-03-23T10:48:38;24.40;22.30
84114;DHT22;74483;48.846;2.358;2024-03-23T10:51:07;24.50;22.20
84114;DHT22;74483;48.846;2.358;2024-03-23T10:53:33;24.60;22.00
84114;DHT22;74483;48.846;2.358;2024-03-23T10:55:59;24.70;22.00
84114;DHT22;74483;48.846;2.358;2024-03-23T10:58:38;24.70;21.90
84114;DHT22;74483;48.846;2.358;2024-03-23T11:01:04;24.70;21.60
84114;DHT22;74483;48.846;2.358;2024-03-23T11:03:34;24.80;21.50
84114;DHT22;74483;48.846;2.358;2024-03-23T11:06:05;24.80;21.40
84114;DHT22;74483;48.846;2.358;2024-03-23T11:11:22;24.80;21.20
84114;DHT22;74483;48.846;2.358;2024-03-23T11:13:50;24.80;21.20
84114;DHT22;74483;48.846;2.358;2024-03-23T11:16:17;24.80;21.10
84114;DHT22;74483;48.846;2.358;2024-03-23T11:18:46;24.80;21.20
84114;DHT22;74483;48.846;2.358;2024-03-23T11:24:16;24.70;21.00
84114;DHT22;74483;48.846;2.358;2024-03-23T11:26:42;24.60;21.00
84114;DHT22;74483;48.846;2.358;2024-03-23T11:29:15;24.60;21.20
84114;DHT22;74483;48.846;2.358;2024-03-23T11:31:48;24.60;21.20
84114;DHT22;74483;48.846;2.358;2024-03-23T11:34:15;24.50;21.40
84114;DHT22;74483;48.846;2.358;2024-03-23T11:36:42;24.50;21.60
84114;DHT22;74483;48.846;2.358;2024-03-23T11:39:19;24.60;21.50
84114;DHT22;74483;48.846;2.358;2024-03-23T11:41:53;24.60;21.30
84114;DHT22;74483;48.846;2.358;2024-03-23T11:44:25;24.60;21.20
84114;DHT22;74483;48.846;2.358;2024-03-23T11:46:51;24.60;21.30
84114;DHT22;74483;48.846;2.358;2024-03-23T11:49:27;24.50;21.30
84114;DHT22;74483;48.846;2.358;2024-03-23T11:51:55;24.60;21.30
84114;DHT22;74483;48.846;2.358;2024-03-23T11:54:22;24.50;21.40
84114;DHT22;74483;48.846;2.358;2024-03-23T11:56:58;24.50;21.20
84114;DHT22;74483;48.846;2.358;2024-03-23T11:59:37;24.60;21.10
84114;DHT22;74483;48.846;2.358;2024-03-23T12:02:11;24.60;21.00
84114;DHT22;74483;48.846;2.358;2024-03-23T12:04:38;24.60;21.00
84114;DHT22;74483;48.846;2.358;2024-03-23T12:09:38;24.60;21.00
84114;DHT22;74483;48.846;2.358;2024-03-23T12:12:16;24.50;21.20
84114;DHT22;74483;48.846;2.358;2024-03-23T12:14:43;24.40;21.10
84114;DHT22;74483;48.846;2.358;2024-03-23T12:17:13;24.40;21.10
84114;DHT22;74483;48.846;2.358;2024-03-23T12:19:39;24.30;21.20
84114;DHT22;74483;48.846;2.358;2024-03-23T12:22:07;24.30;21.20
84114;DHT22;74483;48.846;2.358;2024-03-23T12:24:33;24.30;21.20
84114;DHT22;74483;48.846;2.358;2024-03-23T12:27:04;24.30;21.80
84114;DHT22;74483;48.846;2.358;2024-03-23T12:29:31;24.40;21.00
84114;DHT22;74483;48.846;2.358;2024-03-23T12:32:02;24.40;20.90
84114;DHT22;74483;48.846;2.358;2024-03-23T12:34:29;24.50;20.80
84114;DHT22;74483;48.846;2.358;2024-03-23T12:36:56;24.50;20.90
84114;DHT22;74483;48.846;2.358;2024-03-23T12:39:21;24.50;20.70
84114;DHT22;74483;48.846;2.358;2024-03-23T12:41:48;24.50;20.70
84114;DHT22;74483;48.846;2.358;2024-03-23T12:44:14;24.50;20.70
84114;DHT22;74483;48.846;2.358;2024-03-23T12:46:41;24.40;20.70
84114;DHT22;74483;48.846;2.358;2024-03-23T12:49:06;24.40;20.80
84114;DHT22;74483;48.846;2.358;2024-03-23T12:51:32;24.30;20.90
84114;DHT22;74483;48.846;2.358;2024-03-23T12:53:58;24.30;21.00
84114;DHT22;74483;48.846;2.358;2024-03-23T12:56:24;24.30;21.10
84114;DHT22;74483;48.846;2.358;2024-03-23T12:58:49;24.20;21.10
84114;DHT22;74483;48.846;2.358;2024-03-23T13:01:19;24.20;21.20
84114;DHT22;74483;48.846;2.358;2024-03-23T13:03:48;24.10;21.30
84114;DHT22;74483;48.846;2.358;2024-03-23T13:06:14;24.10;21.30
84114;DHT22;74483;48.846;2.358;2024-03-23T13:08:40;24.10;21.30
84114;DHT22;74483;48.846;2.358;2024-03-23T13:11:07;24.10;21.30
84114;DHT22;74483;48.846;2.358;2024-03-23T13:13:34;24.10;21.30
84114;DHT22;74483;48.846;2.358;2024-03-23T13:16:00;24.10;21.30
84114;DHT22;74483;48.846;2.358;2024-03-23T13:18:26;24.10;21.30
84114;DHT22;74483;48.846;2.358;2024-03-23T13:20:51;24.00;21.30
84114;DHT22;74483;48.846;2.358;2024-03-23T13:23:17;24.00;21.30
84114;DHT22;74483;48.846;2.358;2024-03-23T13:25:52;24.00;21.40
84114;DHT22;74483;48.846;2.358;2024-03-23T13:28:19;23.80;21.40
84114;DHT22;74483;48.846;2.358;2024-03-23T13:30:52;23.80;21.50
84114;DHT22;74483;48.846;2.358;2024-03-23T13:33:18;23.80;21.70
84114;DHT22;74483;48.846;2.358;2024-03-23T13:35:53;23.80;21.80
84114;DHT22;74483;48.846;2.358;2024-03-23T13:38:20;23.70;21.80
84114;DHT22;74483;48.846;2.358;2024-03-23T13:40:53;23.60;22.00
84114;DHT22;74483;48.846;2.358;2024-03-23T13:43:19;23.60;22.10
84114;DHT22;74483;48.846;2.358;2024-03-23T13:45:47;23.60;22.30
84114;DHT22;74483;48.846;2.358;2024-03-23T13:48:22;23.50;22.40
84114;DHT22;74483;48.846;2.358;2024-03-23T13:50:57;23.50;22.50
84114;DHT22;74483;48.846;2.358;2024-03-23T13:53:23;23.40;22.50
84114;DHT22;74483;48.846;2.358;2024-03-23T13:55:49;23.40;22.70
84114;DHT22;74483;48.846;2.358;2024-03-23T13:58:15;23.40;22.70
84114;DHT22;74483;48.846;2.358;2024-03-23T14:00:41;23.30;22.80
84114;DHT22;74483;48.846;2.358;2024-03-23T14:03:10;23.30;22.80
84114;DHT22;74483;48.846;2.358;2024-03-23T14:05:36;23.30;22.90
84114;DHT22;74483;48.846;2.358;2024-03-23T14:08:07;23.30;22.90
84114;DHT22;74483;48.846;2.358;2024-03-23T14:10:33;23.30;22.90
84114;DHT22;74483;48.846;2.358;2024-03-23T14:12:59;23.40;22.90
84114;DHT22;74483;48.846;2.358;2024-03-23T14:15:27;23.40;22.80
84114;DHT22;74483;48.846;2.358;2024-03-23T14:17:53;23.40;22.80
84114;DHT22;74483;48.846;2.358;2024-03-23T14:20:20;23.40;22.80
84114;DHT22;74483;48.846;2.358;2024-03-23T14:22:46;23.40;22.80
84114;DHT22;74483;48.846;2.358;2024-03-23T14:25:12;23.40;22.90
84114;DHT22;74483;48.846;2.358;2024-03-23T14:27:38;23.40;22.80
84114;DHT22;74483;48.846;2.358;2024-03-23T14:30:04;23.40;22.90
84114;DHT22;74483;48.846;2.358;2024-03-23T14:32:33;23.40;22.90
84114;DHT22;74483;48.846;2.358;2024-03-23T14:35:06;23.30;22.90
84114;DHT22;74483;48.846;2.358;2024-03-23T14:37:34;23.40;22.90
84114;DHT22;74483;48.846;2.358;2024-03-23T14:40:00;23.30;22.90
84114;DHT22;74483;48.846;2.358;2024-03-23T14:42:25;23.30;22.90
84114;DHT22;74483;48.846;2.358;2024-03-23T14:44:51;23.30;23.00
84114;DHT22;74483;48.846;2.358;2024-03-23T14:47:18;23.30;23.00
84114;DHT22;74483;48.846;2.358;2024-03-23T14:49:44;23.30;23.00
84114;DHT22;74483;48.846;2.358;2024-03-23T14:52:13;23.30;23.10
84114;DHT22;74483;48.846;2.358;2024-03-23T14:54:39;23.20;23.10
84114;DHT22;74483;48.846;2.358;2024-03-23T14:57:05;23.20;23.20
84114;DHT22;74483;48.846;2.358;2024-03-23T14:59:32;23.20;23.20
84114;DHT22;74483;48.846;2.358;2024-03-23T15:01:57;23.20;23.20
84114;DHT22;74483;48.846;2.358;2024-03-23T15:04:23;23.30;23.20
84114;DHT22;74483;48.846;2.358;2024-03-23T15:06:49;23.30;23.10
84114;DHT22;74483;48.846;2.358;2024-03-23T15:09:15;23.30;23.10
84114;DHT22;74483;48.846;2.358;2024-03-23T15:11:41;23.40;23.00
84114;DHT22;74483;48.846;2.358;2024-03-23T15:14:07;23.40;23.00
84114;DHT22;74483;48.846;2.358;2024-03-23T15:16:33;23.30;23.20
84114;DHT22;74483;48.846;2.358;2024-03-23T15:18:59;23.30;23.20
84114;DHT22;74483;48.846;2.358;2024-03-23T15:21:25;23.30;23.30
84114;DHT22;74483;48.846;2.358;2024-03-23T15:23:51;23.20;23.30
84114;DHT22;74483;48.846;2.358;2024-03-23T15:26:16;23.20;23.40
84114;DHT22;74483;48.846;2.358;2024-03-23T15:28:42;23.20;23.60
84114;DHT22;74483;48.846;2.358;2024-03-23T15:31:28;23.10;23.70
84114;DHT22;74483;48.846;2.358;2024-03-23T15:33:55;23.10;23.80
84114;DHT22;74483;48.846;2.358;2024-03-23T15:36:20;23.00;23.80
84114;DHT22;74483;48.846;2.358;2024-03-23T15:38:46;22.90;23.90
84114;DHT22;74483;48.846;2.358;2024-03-23T15:41:14;22.90;23.90
84114;DHT22;74483;48.846;2.358;2024-03-23T15:43:40;22.90;24.10
84114;DHT22;74483;48.846;2.358;2024-03-23T15:46:06;22.90;24.10
84114;DHT22;74483;48.846;2.358;2024-03-23T15:48:33;22.90;24.20
84114;DHT22;74483;48.846;2.358;2024-03-23T15:51:01;22.90;24.20
84114;DHT22;74483;48.846;2.358;2024-03-23T15:53:28;22.90;24.20
84114;DHT22;74483;48.846;2.358;2024-03-23T15:55:54;22.90;24.20
84114;DHT22;74483;48.846;2.358;2024-03-23T15:58:20;22.90;24.20
84114;DHT22;74483;48.846;2.358;2024-03-23T16:00:55;22.90;24.20
84114;DHT22;74483;48.846;2.358;2024-03-23T16:03:21;22.90;24.30
84114;DHT22;74483;48.846;2.358;2024-03-23T16:06:00;22.80;24.30
84114;DHT22;74483;48.846;2.358;2024-03-23T16:08:26;22.90;24.40
84114;DHT22;74483;48.846;2.358;2024-03-23T16:10:53;22.80;24.40
84114;DHT22;74483;48.846;2.358;2024-03-23T16:13:19;22.90;24.50
84114;DHT22;74483;48.846;2.358;2024-03-23T16:15:45;22.80;24.40
84114;DHT22;74483;48.846;2.358;2024-03-23T16:18:11;22.80;24.40
84114;DHT22;74483;48.846;2.358;2024-03-23T16:20:36;22.90;24.40
84114;DHT22;74483;48.846;2.358;2024-03-23T16:23:03;22.90;24.40
84114;DHT22;74483;48.846;2.358;2024-03-23T16:25:29;22.90;24.30
84114;DHT22;74483;48.846;2.358;2024-03-23T16:27:55;22.90;24.30
84114;DHT22;74483;48.846;2.358;2024-03-23T16:30:21;22.90;24.30
84114;DHT22;74483;48.846;2.358;2024-03-23T16:32:49;22.90;24.30
84114;DHT22;74483;48.846;2.358;2024-03-23T16:35:15;22.90;24.40